createdAt,value
2022-09-10T00:01:36.395Z,15.80
2022-09-10T00:04:08.637Z,15.80
2022-09-10T00:06:38.771Z,15.80
2022-09-10T00:09:08.155Z,15.90
2022-09-10T00:11:38.766Z,15.90
2022-09-10T00:14:08.987Z,15.80
2022-09-10T00:16:37.167Z,15.90
2022-09-10T00:19:06.610Z,15.90
2022-09-10T00:21:35.882Z,15.90
2022-09-10T00:24:06.388Z,15.90
2022-09-10T00:26:39.503Z,15.80
2022-09-10T00:29:10.432Z,15.90
2022-09-10T00:31:39.057Z,15.90
2022-09-10T00:34:09.126Z,15.90
2022-09-10T00:36:40.940Z,15.90
2022-09-10T00:39:13.338Z,15.90
2022-09-10T00:41:43.562Z,15.90
2022-09-10T00:44:45.116Z,15.90
2022-09-10T00:47:17.469Z,15.90
2022-09-10T00:49:48.398Z,16.00
2022-09-10T00:52:18.671Z,16.00
2022-09-10T00:54:48.992Z,16.00
2022-09-10T00:57:22.106Z,15.90
2022-09-10T00:59:53.888Z,15.90
2022-09-10T01:02:22.742Z,15.90
2022-09-10T01:04:51.285Z,15.80
2022-09-10T01:07:21.416Z,15.90
2022-09-10T01:09:51.382Z,15.90
2022-09-10T01:12:35.814Z,15.80
2022-09-10T01:15:15.743Z,15.90
2022-09-10T01:17:57.210Z,15.90
2022-09-10T01:20:44.666Z,15.90
2022-09-10T01:23:49.863Z,15.90
2022-09-10T01:26:32.870Z,16.00
2022-09-10T01:29:08.686Z,16.00
2022-09-10T01:31:43.990Z,16.00
2022-09-10T01:34:20.254Z,16.00
2022-09-10T01:36:52.017Z,16.00
2022-09-10T01:39:22.131Z,15.90
2022-09-10T01:41:50.765Z,15.90
2022-09-10T01:44:44.923Z,15.90
2022-09-10T01:47:22.833Z,15.90
2022-09-10T01:50:12.114Z,15.90
2022-09-10T01:52:51.563Z,15.90
2022-09-10T01:55:35.606Z,15.90
2022-09-10T01:58:12.571Z,15.90
2022-09-10T02:00:46.882Z,16.00
2022-09-10T02:03:18.301Z,15.90
2022-09-10T02:05:50.545Z,15.90
2022-09-10T02:08:23.572Z,15.90
2022-09-10T02:10:53.935Z,15.80
2022-09-10T02:13:23.361Z,15.80
2022-09-10T02:15:53.918Z,15.80
2022-09-10T02:18:23.504Z,15.90
2022-09-10T02:20:55.792Z,15.90
2022-09-10T02:23:31.632Z,15.90
2022-09-10T02:26:00.172Z,16.00
2022-09-10T02:28:28.484Z,16.00
2022-09-10T02:30:58.184Z,15.90
2022-09-10T02:33:26.403Z,15.90
2022-09-10T02:35:55.176Z,15.90
2022-09-10T02:38:23.444Z,15.90
2022-09-10T02:40:51.954Z,16.00
2022-09-10T02:43:20.113Z,15.90
2022-09-10T02:45:48.279Z,15.90
2022-09-10T02:48:18.296Z,15.90
2022-09-10T02:50:46.604Z,15.90
2022-09-10T02:53:14.694Z,15.90
2022-09-10T02:55:46.206Z,15.90
2022-09-10T02:58:16.361Z,16.00
2022-09-10T03:00:45.401Z,16.00
2022-09-10T03:03:14.461Z,16.00
2022-09-10T03:05:44.073Z,15.90
2022-09-10T03:08:14.546Z,15.90
2022-09-10T03:10:42.788Z,16.00
2022-09-10T03:13:10.843Z,16.00
2022-09-10T03:15:39.278Z,16.00
2022-09-10T03:18:08.308Z,16.00
2022-09-10T03:20:36.454Z,16.00
2022-09-10T03:23:05.939Z,16.00
2022-09-10T03:25:36.466Z,16.00
2022-09-10T03:28:04.991Z,16.00
2022-09-10T03:30:33.184Z,16.00
2022-09-10T03:33:02.380Z,15.90
2022-09-10T03:35:30.403Z,16.00
2022-09-10T03:37:58.488Z,16.00
2022-09-10T03:40:29.631Z,16.00
2022-09-10T03:42:59.142Z,16.00
2022-09-10T03:45:27.658Z,16.00
2022-09-10T03:47:55.745Z,16.00
2022-09-10T03:50:24.042Z,16.00
2022-09-10T03:52:52.402Z,16.00
2022-09-10T03:55:21.106Z,16.00
2022-09-10T03:57:50.598Z,16.00
2022-09-10T04:00:18.912Z,16.00
2022-09-10T04:02:47.021Z,16.00
2022-09-10T04:05:15.744Z,16.00
2022-09-10T04:07:44.029Z,16.10
2022-09-10T04:10:13.251Z,16.10
2022-09-10T04:12:41.444Z,16.10
2022-09-10T04:15:13.343Z,16.20
2022-09-10T04:17:41.857Z,16.10
2022-09-10T04:20:10.706Z,16.10
2022-09-10T04:22:38.878Z,16.10
2022-09-10T04:25:08.325Z,16.10
2022-09-10T04:27:36.772Z,16.10
2022-09-10T04:30:05.397Z,16.20
2022-09-10T04:32:34.957Z,16.10
2022-09-10T04:35:03.309Z,16.10
2022-09-10T04:37:31.846Z,16.10
2022-09-10T04:40:00.075Z,16.10
2022-09-10T04:42:28.541Z,16.10
2022-09-10T04:44:56.971Z,16.10
2022-09-10T04:47:25.756Z,16.10
2022-09-10T04:49:55.979Z,16.10
2022-09-10T04:52:24.253Z,16.20
2022-09-10T04:54:52.665Z,16.20
2022-09-10T04:57:20.987Z,16.20
2022-09-10T04:59:49.091Z,16.20
2022-09-10T05:02:17.314Z,16.20
2022-09-10T05:04:45.726Z,16.20
2022-09-10T05:07:15.226Z,16.20
2022-09-10T05:09:43.987Z,16.20
2022-09-10T05:12:12.096Z,16.10
2022-09-10T05:14:40.191Z,16.10
2022-09-10T05:17:08.736Z,16.10
2022-09-10T05:19:38.544Z,16.10
2022-09-10T05:22:06.937Z,16.10
2022-09-10T05:24:36.703Z,16.10
2022-09-10T05:27:05.051Z,16.10
2022-09-10T05:29:33.212Z,16.10
2022-09-10T05:32:01.368Z,16.10
2022-09-10T05:34:29.453Z,16.10
2022-09-10T05:36:57.554Z,16.20
2022-09-10T05:39:25.725Z,16.10
2022-09-10T05:41:55.919Z,16.10
2022-09-10T05:44:24.055Z,16.20
2022-09-10T05:46:52.473Z,16.10
2022-09-10T05:49:20.502Z,16.10
2022-09-10T05:51:48.621Z,16.20
2022-09-10T05:54:18.187Z,16.20
2022-09-10T05:56:46.547Z,16.20
2022-09-10T05:59:16.098Z,16.20
2022-09-10T06:01:44.576Z,16.10
2022-09-10T06:04:13.325Z,16.10
2022-09-10T06:06:41.493Z,16.10
2022-09-10T06:09:09.668Z,16.20
2022-09-10T06:11:37.764Z,16.20
2022-09-10T06:14:06.309Z,16.20
2022-09-10T06:16:35.837Z,16.30
2022-09-10T06:19:04.028Z,16.30
2022-09-10T06:21:32.381Z,16.30
2022-09-10T06:24:00.570Z,16.30
2022-09-10T06:26:28.902Z,16.40
2022-09-10T06:28:57.569Z,16.40
2022-09-10T06:31:27.616Z,16.50
2022-09-10T06:33:57.119Z,16.40
2022-09-10T06:36:25.177Z,16.40
2022-09-10T06:38:55.673Z,16.40
2022-09-10T06:41:24.337Z,16.40
2022-09-10T06:43:52.512Z,16.40
2022-09-10T06:49:12.758Z,16.60
2022-09-10T06:51:41.271Z,16.60
2022-09-10T06:54:09.454Z,16.60
2022-09-10T06:56:38.073Z,16.60
2022-09-10T06:59:06.274Z,16.70
2022-09-10T07:01:34.698Z,16.70
2022-09-10T07:04:06.319Z,16.70
2022-09-10T07:06:36.851Z,16.70
2022-09-10T07:09:05.621Z,16.60
2022-09-10T07:11:36.933Z,16.60
2022-09-10T07:14:12.276Z,16.60
2022-09-10T07:16:44.683Z,16.60
2022-09-10T07:19:15.059Z,16.60
2022-09-10T07:21:44.891Z,16.60
2022-09-10T07:24:14.524Z,16.60
2022-09-10T07:26:48.970Z,16.60
2022-09-10T07:29:22.870Z,16.60
2022-09-10T07:31:51.364Z,16.60
2022-09-10T07:34:20.317Z,16.60
2022-09-10T07:36:50.683Z,16.60
2022-09-10T07:39:21.352Z,16.60
2022-09-10T07:41:53.483Z,16.60
2022-09-10T07:44:22.003Z,16.50
2022-09-10T07:46:50.280Z,16.50
2022-09-10T07:49:18.376Z,16.50
2022-09-10T07:51:46.528Z,16.50
2022-09-10T07:54:17.088Z,16.50
2022-09-10T07:56:45.201Z,16.50
2022-09-10T07:59:15.238Z,16.50
2022-09-10T08:01:44.657Z,16.50
2022-09-10T08:04:12.823Z,16.50
2022-09-10T08:06:41.004Z,16.60
2022-09-10T08:09:09.320Z,16.60
2022-09-10T08:11:41.973Z,16.70
2022-09-10T08:14:10.633Z,16.80
2022-09-10T08:16:42.496Z,16.80
2022-09-10T08:19:13.860Z,16.90
2022-09-10T08:21:42.019Z,17.00
2022-09-10T08:24:14.121Z,17.00
2022-09-10T08:26:43.618Z,17.10
2022-09-10T08:29:11.951Z,17.10
2022-09-10T08:31:41.601Z,17.00
2022-09-10T08:34:13.750Z,17.00
2022-09-10T08:36:42.247Z,17.00
2022-09-10T08:39:12.456Z,17.10
2022-09-10T08:41:55.151Z,17.00
2022-09-10T08:44:33.106Z,17.00
2022-09-10T08:47:07.527Z,16.90
2022-09-10T08:49:40.712Z,16.80
2022-09-10T08:52:17.168Z,16.80
2022-09-10T08:54:57.248Z,16.70
2022-09-10T08:57:31.661Z,16.70
2022-09-10T09:00:01.191Z,16.80
2022-09-10T09:02:49.519Z,16.80
2022-09-10T09:05:20.152Z,16.80
2022-09-10T09:07:49.508Z,16.70
2022-09-10T09:10:33.679Z,16.70
2022-09-10T09:13:28.588Z,16.70
2022-09-10T09:16:09.509Z,16.80
2022-09-10T09:18:50.395Z,16.90
2022-09-10T09:21:25.072Z,16.90
2022-09-10T09:24:12.707Z,16.90
2022-09-10T09:26:47.642Z,16.90
2022-09-10T09:29:24.562Z,16.90
2022-09-10T09:31:59.642Z,17.00
2022-09-10T09:34:35.119Z,16.90
2022-09-10T09:37:05.868Z,17.00
2022-09-10T09:39:46.848Z,17.00
2022-09-10T09:42:23.392Z,17.10
2022-09-10T09:45:02.240Z,17.00
2022-09-10T09:47:30.484Z,17.00
2022-09-10T09:49:59.514Z,17.00
2022-09-10T09:52:31.228Z,17.00
2022-09-10T09:55:14.479Z,17.00
2022-09-10T09:57:43.727Z,17.00
2022-09-10T10:00:37.190Z,17.00
2022-09-10T10:03:13.910Z,17.10
2022-09-10T10:05:43.984Z,17.10
2022-09-10T10:08:31.180Z,17.00
2022-09-10T10:10:59.870Z,16.90
2022-09-10T10:13:39.061Z,16.90
2022-09-10T10:16:20.941Z,17.00
2022-09-10T10:18:50.007Z,16.90
2022-09-10T10:21:34.161Z,16.90
2022-09-10T10:24:04.120Z,17.00
2022-09-10T10:26:34.006Z,17.00
2022-09-10T10:29:07.167Z,17.10
2022-09-10T10:31:41.268Z,17.20
2022-09-10T10:34:40.266Z,17.20
2022-09-10T10:37:16.076Z,17.20
2022-09-10T10:40:04.155Z,17.30
2022-09-10T10:42:37.094Z,17.30
2022-09-10T10:45:32.241Z,17.40
2022-09-10T10:48:10.056Z,17.40
2022-09-10T10:50:48.718Z,17.60
2022-09-10T10:53:43.237Z,17.70
2022-09-10T10:56:19.493Z,17.80
2022-09-10T10:59:05.287Z,17.90
2022-09-10T11:01:39.888Z,18.00
2022-09-10T11:04:23.942Z,17.90
2022-09-10T11:06:58.059Z,17.90
2022-09-10T11:09:31.254Z,17.90
2022-09-10T11:12:03.317Z,17.90
2022-09-10T11:14:40.450Z,18.00
2022-09-10T11:17:16.750Z,18.00
2022-09-10T11:20:05.310Z,18.00
2022-09-10T11:22:46.409Z,18.00
2022-09-10T11:25:21.671Z,18.20
2022-09-10T11:27:54.869Z,18.30
2022-09-10T11:30:23.242Z,18.50
2022-09-10T11:32:59.834Z,18.60
2022-09-10T11:35:32.034Z,18.50
2022-09-10T11:38:07.923Z,18.50
2022-09-10T11:40:43.318Z,18.50
2022-09-10T11:43:15.008Z,18.40
2022-09-10T11:45:48.984Z,18.40
2022-09-10T11:48:23.902Z,18.50
2022-09-10T11:50:57.185Z,18.50
2022-09-10T11:53:26.616Z,18.50
2022-09-10T11:56:16.165Z,18.60
2022-09-10T11:58:55.453Z,18.60
2022-09-10T12:01:44.125Z,18.70
2022-09-10T12:04:47.358Z,18.80
2022-09-10T12:07:30.549Z,18.80
2022-09-10T12:10:12.274Z,18.80
2022-09-10T12:12:44.349Z,18.80
2022-09-10T12:15:20.010Z,18.70
2022-09-10T12:17:54.195Z,18.70
2022-09-10T12:20:29.601Z,18.70
2022-09-10T12:23:06.144Z,18.70
2022-09-10T12:25:40.751Z,18.60
2022-09-10T12:28:49.671Z,18.50
2022-09-10T12:31:21.038Z,18.40
2022-09-10T12:34:08.193Z,18.30
2022-09-10T12:37:19.890Z,18.20
2022-09-10T12:39:50.326Z,18.10
2022-09-10T12:42:36.872Z,18.20
2022-09-10T12:45:05.427Z,18.30
2022-09-10T12:47:52.652Z,18.30
2022-09-10T12:50:46.246Z,18.30
2022-09-10T12:53:47.364Z,18.20
2022-09-10T12:56:54.500Z,18.30
2022-09-10T12:59:57.259Z,18.20
2022-09-10T13:02:31.845Z,18.40
2022-09-10T13:05:02.698Z,18.30
2022-09-10T13:07:41.604Z,18.40
2022-09-10T13:10:21.841Z,18.50
2022-09-10T13:12:56.643Z,18.50
2022-09-10T13:15:27.490Z,18.50
2022-09-10T13:18:26.086Z,18.70
2022-09-10T13:20:54.340Z,18.80
2022-09-10T13:23:25.056Z,18.90
2022-09-10T13:25:53.471Z,19.10
2022-09-10T13:29:09.236Z,19.20
2022-09-10T13:31:41.912Z,19.30
2022-09-10T13:34:56.693Z,19.60
2022-09-10T13:38:00.442Z,19.70
2022-09-10T13:41:02.603Z,19.60
2022-09-10T13:44:01.036Z,19.50
2022-09-10T13:46:37.673Z,19.40
2022-09-10T13:49:13.860Z,19.20
2022-09-10T13:51:51.144Z,19.20
2022-09-10T13:54:31.563Z,19.10
2022-09-10T13:57:07.526Z,19.10
2022-09-10T13:59:38.157Z,19.10
2022-09-10T14:02:07.975Z,19.00
2022-09-10T14:04:39.915Z,19.00
2022-09-10T14:07:16.255Z,19.00
2022-09-10T14:09:46.315Z,19.00
2022-09-10T14:12:16.106Z,19.00
2022-09-10T14:14:52.551Z,19.00
2022-09-10T14:17:29.935Z,19.00
2022-09-10T14:20:02.256Z,19.00
2022-09-10T14:22:31.909Z,19.00
2022-09-10T14:25:02.755Z,19.00
2022-09-10T14:27:33.150Z,19.00
2022-09-10T14:30:23.479Z,19.00
2022-09-10T14:32:53.786Z,18.90
2022-09-10T14:35:39.316Z,18.80
2022-09-10T14:38:25.967Z,18.70
2022-09-10T14:40:58.906Z,18.70
2022-09-10T14:43:31.160Z,18.60
2022-09-10T14:45:59.804Z,18.70
2022-09-10T14:48:37.819Z,18.70
2022-09-10T14:51:17.710Z,18.70
2022-09-10T14:53:47.729Z,18.70
2022-09-10T14:56:24.355Z,18.70
2022-09-10T14:58:59.532Z,18.70
2022-09-10T15:01:28.435Z,18.70
2022-09-10T15:04:00.475Z,18.70
2022-09-10T15:06:28.737Z,18.70
2022-09-10T15:08:57.176Z,18.60
2022-09-10T15:11:27.482Z,18.70
2022-09-10T15:13:58.871Z,18.70
2022-09-10T15:16:27.703Z,18.80
2022-09-10T15:18:58.246Z,18.90
2022-09-10T15:21:28.141Z,18.90
2022-09-10T15:23:56.378Z,18.90
2022-09-10T15:26:25.460Z,19.00
2022-09-10T15:28:54.680Z,19.00
2022-09-10T15:31:23.425Z,18.90
2022-09-10T15:33:52.627Z,19.00
2022-09-10T15:36:22.586Z,19.00
2022-09-10T15:38:53.984Z,19.00
2022-09-10T15:41:29.943Z,19.10
2022-09-10T15:44:03.120Z,19.20
2022-09-10T15:46:31.599Z,19.10
2022-09-10T15:49:00.016Z,19.10
2022-09-10T15:51:28.238Z,19.20
2022-09-10T15:54:01.783Z,19.20
2022-09-10T15:56:42.710Z,19.10
2022-09-10T15:59:19.175Z,19.10
2022-09-10T16:02:05.314Z,19.10
2022-09-10T16:04:45.166Z,19.10
2022-09-10T16:07:14.494Z,19.10
2022-09-10T16:09:44.366Z,19.10
2022-09-10T16:12:14.247Z,19.00
2022-09-10T16:14:44.523Z,19.00
2022-09-10T16:17:13.764Z,19.00
2022-09-10T16:19:42.070Z,18.80
2022-09-10T16:22:10.398Z,18.80
2022-09-10T16:24:39.379Z,18.80
2022-09-10T16:27:09.126Z,18.70
2022-09-10T16:29:38.194Z,18.70
2022-09-10T16:32:07.340Z,18.60
2022-09-10T16:34:35.836Z,18.60
2022-09-10T16:37:04.648Z,18.60
2022-09-10T16:39:33.948Z,18.60
2022-09-10T16:42:02.622Z,18.60
2022-09-10T16:44:32.446Z,18.50
2022-09-10T16:47:01.979Z,18.50
2022-09-10T16:49:30.286Z,18.50
2022-09-10T16:51:59.010Z,18.40
2022-09-10T16:54:27.503Z,18.40
2022-09-10T16:56:55.841Z,18.40
2022-09-10T16:59:26.030Z,18.40
2022-09-10T17:01:59.675Z,18.50
2022-09-10T17:04:29.310Z,18.40
2022-09-10T17:06:58.537Z,18.30
2022-09-10T17:09:27.261Z,18.30
2022-09-10T17:11:55.926Z,18.30
2022-09-10T17:14:24.897Z,18.40
2022-09-10T17:16:53.497Z,18.30
2022-09-10T17:19:26.515Z,18.30
2022-09-10T17:21:56.882Z,18.40
2022-09-10T17:24:27.140Z,18.40
2022-09-10T17:26:56.288Z,18.40
2022-09-10T17:29:26.426Z,18.40
2022-09-10T17:31:57.473Z,18.40
2022-09-10T17:34:28.284Z,18.30
2022-09-10T17:36:56.488Z,18.30
2022-09-10T17:39:28.299Z,18.30
2022-09-10T17:41:56.875Z,18.20
2022-09-10T17:44:26.331Z,18.20
2022-09-10T17:46:56.974Z,18.20
2022-09-10T17:49:26.867Z,18.20
2022-09-10T17:51:55.286Z,18.20
2022-09-10T17:54:24.420Z,18.20
2022-09-10T17:56:52.650Z,18.10
2022-09-10T17:59:29.231Z,18.10
2022-09-10T18:02:04.285Z,18.10
2022-09-10T18:04:34.226Z,18.10
2022-09-10T18:07:03.042Z,18.10
2022-09-10T18:09:31.567Z,18.10
2022-09-10T18:12:01.456Z,18.10
2022-09-10T18:14:30.180Z,18.10
2022-09-10T18:16:59.174Z,18.10
2022-09-10T18:19:28.097Z,18.00
2022-09-10T18:21:57.776Z,18.00
2022-09-10T18:24:28.348Z,18.00
2022-09-10T18:26:57.419Z,18.00
2022-09-10T18:29:28.269Z,18.00
2022-09-10T18:31:58.671Z,18.00
2022-09-10T18:34:29.866Z,18.00
2022-09-10T18:37:00.794Z,18.00
2022-09-10T18:39:30.914Z,17.90
2022-09-10T18:42:01.004Z,17.90
2022-09-10T18:44:33.496Z,17.90
2022-09-10T18:47:01.852Z,17.90
2022-09-10T18:49:30.881Z,17.90
2022-09-10T18:52:01.043Z,17.90
2022-09-10T18:54:30.144Z,17.90
2022-09-10T18:56:58.774Z,17.90
2022-09-10T18:59:27.785Z,17.90
2022-09-10T19:02:00.462Z,17.90
2022-09-10T19:04:49.052Z,17.90
2022-09-10T19:07:25.530Z,17.90
2022-09-10T19:09:54.071Z,17.90
2022-09-10T19:12:22.629Z,17.90
2022-09-10T19:14:51.453Z,17.90
2022-09-10T19:17:20.125Z,17.80
2022-09-10T19:19:50.305Z,17.90
2022-09-10T19:22:18.536Z,17.90
2022-09-10T19:24:56.531Z,17.80
2022-09-10T19:27:25.007Z,17.80
2022-09-10T19:29:53.884Z,17.70
2022-09-10T19:32:22.679Z,17.70
2022-09-10T19:34:51.490Z,17.70
2022-09-10T19:37:20.952Z,17.70
2022-09-10T19:39:51.088Z,17.70
2022-09-10T19:42:19.432Z,17.70
2022-09-10T19:44:49.177Z,17.70
2022-09-10T19:47:17.969Z,17.70
2022-09-10T19:49:46.933Z,17.70
2022-09-10T19:52:17.215Z,17.70
2022-09-10T19:54:45.608Z,17.70
2022-09-10T19:57:16.126Z,17.70
2022-09-10T19:59:44.928Z,17.70
2022-09-10T20:02:14.432Z,17.70
2022-09-10T20:04:43.123Z,17.60
2022-09-10T20:07:11.817Z,17.70
2022-09-10T20:09:40.915Z,17.70
2022-09-10T20:12:10.860Z,17.70
2022-09-10T20:14:41.000Z,17.70
2022-09-10T20:17:10.119Z,17.70
2022-09-10T20:19:39.003Z,17.70
2022-09-10T20:22:07.998Z,17.60
2022-09-10T20:24:37.389Z,17.60
2022-09-10T20:27:06.792Z,17.60
2022-09-10T20:29:36.608Z,17.60
2022-09-10T20:32:07.501Z,17.60
2022-09-10T20:34:37.231Z,17.60
2022-09-10T20:37:05.682Z,17.60
2022-09-10T20:39:34.750Z,17.60
2022-09-10T20:42:04.930Z,17.60
2022-09-10T20:44:36.016Z,17.60
2022-09-10T20:47:07.631Z,17.70
2022-09-10T20:49:36.112Z,17.70
2022-09-10T20:52:04.722Z,17.60
2022-09-10T20:54:33.191Z,17.60
2022-09-10T20:57:02.242Z,17.60
2022-09-10T20:59:31.050Z,17.60
2022-09-10T21:01:59.671Z,17.60
2022-09-10T21:04:29.392Z,17.70
2022-09-10T21:06:57.773Z,17.70
2022-09-10T21:09:26.192Z,17.70
2022-09-10T21:11:55.141Z,17.70
2022-09-10T21:14:26.489Z,17.70
2022-09-10T21:16:55.518Z,17.70
2022-09-10T21:19:23.776Z,17.70
2022-09-10T21:21:53.899Z,17.70
2022-09-10T21:24:23.067Z,17.70
2022-09-10T21:26:53.760Z,17.60
2022-09-10T21:29:23.579Z,17.60
2022-09-10T21:31:54.680Z,17.60
2022-09-10T21:34:24.568Z,17.60
2022-09-10T21:36:54.251Z,17.60
2022-09-10T21:39:22.664Z,17.60
2022-09-10T21:41:52.683Z,17.60
2022-09-10T21:44:22.081Z,17.60
2022-09-10T21:46:51.052Z,17.60
2022-09-10T21:49:20.252Z,17.50
2022-09-10T21:51:49.410Z,17.50
2022-09-10T21:54:20.871Z,17.50
2022-09-10T21:56:49.945Z,17.60
2022-09-10T21:59:18.411Z,17.60
2022-09-10T22:01:48.179Z,17.60
2022-09-10T22:04:22.120Z,17.60
2022-09-10T22:06:51.439Z,17.60
2022-09-10T22:09:21.423Z,17.60
2022-09-10T22:11:52.031Z,17.60
2022-09-10T22:14:22.440Z,17.60
2022-09-10T22:16:51.163Z,17.60
2022-09-10T22:19:21.871Z,17.60
2022-09-10T22:21:50.325Z,17.60
2022-09-10T22:24:20.174Z,17.60
2022-09-10T22:26:53.962Z,17.60
2022-09-10T22:29:29.930Z,17.60
2022-09-10T22:31:58.626Z,17.50
2022-09-10T22:34:27.545Z,17.50
2022-09-10T22:36:55.881Z,17.50
2022-09-10T22:39:25.808Z,17.50
2022-09-10T22:41:55.467Z,17.40
2022-09-10T22:44:23.914Z,17.40
2022-09-10T22:46:52.503Z,17.40
2022-09-10T22:49:21.947Z,17.40
2022-09-10T22:51:50.310Z,17.40
2022-09-10T22:54:18.684Z,17.30
2022-09-10T22:56:48.231Z,17.30
2022-09-10T22:59:25.663Z,17.30
2022-09-10T23:02:03.178Z,17.30
2022-09-10T23:04:31.891Z,17.20
2022-09-10T23:07:00.884Z,17.20
2022-09-10T23:09:29.409Z,17.20
2022-09-10T23:11:59.025Z,17.20
2022-09-10T23:14:27.152Z,17.20
2022-09-10T23:16:55.485Z,17.20
2022-09-10T23:19:26.340Z,17.10
2022-09-10T23:21:56.132Z,17.10
2022-09-10T23:24:26.447Z,17.10
2022-09-10T23:26:55.314Z,17.20
2022-09-10T23:29:25.054Z,17.20
2022-09-10T23:31:54.314Z,17.10
2022-09-10T23:34:24.061Z,17.20
2022-09-10T23:36:53.813Z,17.10
2022-09-10T23:39:23.895Z,17.20
2022-09-10T23:41:54.235Z,17.20
2022-09-10T23:44:23.950Z,17.10
2022-09-10T23:46:54.342Z,17.10
2022-09-10T23:49:24.057Z,17.10
2022-09-10T23:52:03.425Z,17.10
2022-09-10T23:54:47.778Z,17.10
2022-09-10T23:57:27.191Z,17.10
2022-09-10T23:59:56.078Z,17.10
